createdAt,value
2018-10-17T00:00:03.187Z,75.10
2018-10-17T00:02:06.872Z,77.50
2018-10-17T00:04:10.434Z,77.40
2018-10-17T00:06:14.140Z,76.40
2018-10-17T00:08:17.883Z,74.90
2018-10-17T00:10:21.478Z,74.20
2018-10-17T00:12:25.069Z,72.80
2018-10-17T00:14:28.759Z,72.10
2018-10-17T00:16:32.375Z,72.00
2018-10-17T00:18:36.229Z,72.00
2018-10-17T00:20:39.824Z,72.20
2018-10-17T00:22:43.411Z,72.80
2018-10-17T00:24:47.132Z,72.40
2018-10-17T00:26:51.066Z,72.70
2018-10-17T00:28:54.656Z,73.30
2018-10-17T00:30:58.249Z,73.70
2018-10-17T00:33:01.941Z,73.40
2018-10-17T00:35:06.386Z,74.30
2018-10-17T00:37:10.062Z,73.50
2018-10-17T00:39:13.476Z,73.80
2018-10-17T00:41:17.133Z,74.30
2018-10-17T00:43:20.632Z,74.00
2018-10-17T00:45:24.155Z,74.60
2018-10-17T00:47:27.770Z,76.50
2018-10-17T00:49:31.457Z,77.60
2018-10-17T00:51:35.016Z,79.50
2018-10-17T00:53:38.732Z,81.00
2018-10-17T00:55:42.313Z,81.80
2018-10-17T00:57:45.910Z,82.30
2018-10-17T00:59:49.469Z,81.20
2018-10-17T01:01:53.202Z,80.50
2018-10-17T01:03:56.833Z,80.40
2018-10-17T01:06:00.437Z,79.90
2018-10-17T01:08:04.048Z,80.50
2018-10-17T01:10:07.916Z,79.10
2018-10-17T01:12:11.457Z,77.20
2018-10-17T01:14:15.052Z,76.90
2018-10-17T01:16:18.746Z,78.00
2018-10-17T01:18:22.417Z,78.90
2018-10-17T01:20:26.163Z,78.80
2018-10-17T01:22:29.782Z,78.00
2018-10-17T01:24:33.406Z,76.40
2018-10-17T01:26:37.012Z,74.90
2018-10-17T01:28:40.971Z,73.70
2018-10-17T01:30:44.572Z,72.90
2018-10-17T01:32:48.257Z,72.70
2018-10-17T01:34:51.777Z,72.60
2018-10-17T01:36:55.402Z,72.60
2018-10-17T01:38:59.027Z,72.40
2018-10-17T01:41:02.780Z,72.50
2018-10-17T01:43:06.361Z,72.70
2018-10-17T01:45:10.235Z,74.00
2018-10-17T01:47:14.608Z,74.60
2018-10-17T01:49:18.121Z,75.00
2018-10-17T01:51:21.683Z,74.10
2018-10-17T01:53:25.650Z,73.30
2018-10-17T01:55:29.254Z,72.60
2018-10-17T01:57:32.993Z,72.20
2018-10-17T01:59:36.596Z,71.90
2018-10-17T02:01:40.367Z,71.90
2018-10-17T02:03:43.917Z,71.40
2018-10-17T02:05:47.519Z,71.20
2018-10-17T02:07:51.068Z,71.20
2018-10-17T02:09:54.625Z,71.20
2018-10-17T02:11:58.175Z,71.40
2018-10-17T02:14:01.896Z,71.50
2018-10-17T02:16:05.676Z,71.20
2018-10-17T02:18:09.471Z,72.00
2018-10-17T02:20:12.995Z,71.30
2018-10-17T02:22:16.555Z,70.60
2018-10-17T02:24:20.560Z,71.60
2018-10-17T02:26:24.174Z,74.00
2018-10-17T02:28:27.888Z,75.00
2018-10-17T02:30:31.919Z,75.60
2018-10-17T02:32:35.544Z,76.40
2018-10-17T02:34:44.339Z,75.90
2018-10-17T02:36:47.942Z,75.90
2018-10-17T02:38:51.640Z,77.60
2018-10-17T02:40:55.255Z,79.40
2018-10-17T02:42:58.800Z,79.40
2018-10-17T02:45:02.380Z,77.60
2018-10-17T02:47:06.230Z,76.60
2018-10-17T02:49:09.836Z,75.50
2018-10-17T02:51:13.319Z,74.70
2018-10-17T02:53:16.933Z,74.00
2018-10-17T02:55:20.601Z,73.50
2018-10-17T02:57:24.154Z,73.10
2018-10-17T02:59:27.783Z,72.80
2018-10-17T03:01:31.467Z,72.60
2018-10-17T03:03:35.184Z,72.40
2018-10-17T03:05:38.750Z,72.50
2018-10-17T03:07:42.369Z,72.30
2018-10-17T03:09:45.987Z,72.20
2018-10-17T03:11:49.695Z,72.20
2018-10-17T03:13:53.215Z,72.30
2018-10-17T03:15:56.885Z,73.10
2018-10-17T03:18:00.473Z,72.60
2018-10-17T03:20:04.603Z,72.70
2018-10-17T03:22:08.172Z,72.90
2018-10-17T03:24:11.751Z,72.40
2018-10-17T03:26:15.427Z,71.90
2018-10-17T03:28:18.998Z,71.50
2018-10-17T03:30:22.595Z,71.40
2018-10-17T03:32:26.510Z,71.30
2018-10-17T03:34:30.155Z,71.30
2018-10-17T03:36:33.729Z,71.80
2018-10-17T03:38:37.300Z,71.70
2018-10-17T03:40:40.807Z,72.60
2018-10-17T03:42:44.420Z,74.90
2018-10-17T03:44:48.021Z,76.60
2018-10-17T03:46:51.607Z,78.20
2018-10-17T03:48:55.137Z,77.20
2018-10-17T03:50:58.835Z,77.10
2018-10-17T03:53:02.430Z,78.70
2018-10-17T03:55:06.387Z,77.50
2018-10-17T03:57:10.092Z,77.70
2018-10-17T03:59:13.752Z,77.40
2018-10-17T04:01:17.678Z,78.00
2018-10-17T04:03:22.016Z,78.30
2018-10-17T04:05:25.687Z,79.30
2018-10-17T04:07:29.271Z,79.00
2018-10-17T04:09:33.116Z,78.80
2018-10-17T04:11:36.638Z,76.80
2018-10-17T04:13:40.204Z,75.70
2018-10-17T04:15:44.087Z,74.60
2018-10-17T04:17:47.699Z,73.60
2018-10-17T04:19:51.280Z,73.20
2018-10-17T04:21:54.909Z,72.70
2018-10-17T04:23:58.582Z,72.60
2018-10-17T04:26:02.209Z,72.90
2018-10-17T04:28:05.812Z,72.40
2018-10-17T04:30:09.419Z,72.10
2018-10-17T04:32:12.945Z,71.90
2018-10-17T04:34:16.598Z,72.10
2018-10-17T04:36:20.230Z,71.80
2018-10-17T04:38:23.703Z,71.70
2018-10-17T04:40:27.295Z,71.40
2018-10-17T04:42:30.850Z,71.40
2018-10-17T04:44:34.449Z,71.30
2018-10-17T04:46:38.155Z,71.50
2018-10-17T04:48:41.691Z,72.20
2018-10-17T04:50:45.284Z,72.20
2018-10-17T04:52:48.906Z,71.90
2018-10-17T04:54:52.500Z,71.90
2018-10-17T04:56:56.154Z,71.60
2018-10-17T04:58:59.730Z,71.70
2018-10-17T05:01:03.302Z,71.60
2018-10-17T05:03:06.843Z,71.40
2018-10-17T05:05:10.550Z,71.10
2018-10-17T05:07:14.156Z,71.30
2018-10-17T05:09:17.823Z,71.40
2018-10-17T05:11:21.535Z,71.50
2018-10-17T05:13:25.064Z,72.00
2018-10-17T05:15:28.716Z,71.90
2018-10-17T05:17:32.395Z,71.30
2018-10-17T05:19:36.075Z,71.20
2018-10-17T05:21:39.631Z,71.30
2018-10-17T05:23:43.201Z,70.90
2018-10-17T05:25:46.855Z,70.70
2018-10-17T05:27:50.410Z,71.70
2018-10-17T05:29:54.280Z,73.50
2018-10-17T05:31:57.840Z,74.60
2018-10-17T05:34:01.372Z,74.70
2018-10-17T05:36:05.063Z,74.10
2018-10-17T05:38:08.801Z,73.40
2018-10-17T05:40:12.321Z,73.40
2018-10-17T05:42:16.005Z,74.20
2018-10-17T05:44:19.716Z,74.30
2018-10-17T05:46:23.392Z,75.00
2018-10-17T05:48:27.100Z,75.50
2018-10-17T05:50:30.714Z,77.40
2018-10-17T05:52:34.322Z,78.90
2018-10-17T05:54:37.883Z,80.80
2018-10-17T05:56:41.431Z,82.60
2018-10-17T05:58:45.017Z,83.40
2018-10-17T06:00:48.811Z,84.40
2018-10-17T06:02:52.386Z,86.40
2018-10-17T06:04:56.305Z,84.90
2018-10-17T06:06:59.863Z,84.40
2018-10-17T06:09:03.884Z,84.30
2018-10-17T06:11:07.460Z,84.40
2018-10-17T06:13:11.052Z,84.70
2018-10-17T06:15:14.673Z,85.00
2018-10-17T06:17:18.289Z,84.80
2018-10-17T06:19:21.768Z,85.30
2018-10-17T06:21:25.340Z,84.60
2018-10-17T06:23:28.889Z,85.30
2018-10-17T06:25:32.452Z,85.30
2018-10-17T06:27:36.216Z,85.60
2018-10-17T06:29:39.882Z,85.70
2018-10-17T06:31:43.435Z,85.40
2018-10-17T06:33:47.044Z,86.90
2018-10-17T06:35:50.736Z,85.40
2018-10-17T06:37:54.324Z,84.80
2018-10-17T06:39:57.857Z,85.50
2018-10-17T06:42:01.456Z,83.70
2018-10-17T06:44:05.640Z,82.20
2018-10-17T06:46:09.145Z,80.60
2018-10-17T06:48:12.651Z,79.10
2018-10-17T06:50:16.193Z,78.10
2018-10-17T06:52:19.829Z,77.40
2018-10-17T06:54:23.450Z,76.70
2018-10-17T06:56:27.186Z,76.40
2018-10-17T06:58:31.145Z,76.20
2018-10-17T07:00:34.728Z,76.00
2018-10-17T07:02:38.276Z,76.20
2018-10-17T07:04:41.801Z,76.30
2018-10-17T07:06:45.349Z,75.70
2018-10-17T07:08:49.477Z,75.30
2018-10-17T07:10:53.252Z,75.00
2018-10-17T07:12:56.779Z,74.90
2018-10-17T07:15:00.402Z,74.90
2018-10-17T07:17:04.271Z,74.70
2018-10-17T07:19:07.914Z,74.70
2018-10-17T07:21:11.346Z,74.50
2018-10-17T07:23:15.234Z,74.20
2018-10-17T07:25:19.115Z,74.70
2018-10-17T07:27:22.655Z,75.10
2018-10-17T07:29:26.317Z,74.90
2018-10-17T07:31:29.964Z,75.30
2018-10-17T07:33:33.479Z,74.90
2018-10-17T07:35:37.290Z,75.00
2018-10-17T07:37:40.756Z,74.90
2018-10-17T07:39:44.434Z,75.00
2018-10-17T07:41:48.024Z,74.70
2018-10-17T07:43:51.603Z,75.10
2018-10-17T07:45:55.267Z,75.70
2018-10-17T07:47:58.903Z,76.00
2018-10-17T07:50:02.473Z,75.30
2018-10-17T07:52:06.570Z,75.00
2018-10-17T07:54:10.293Z,74.90
2018-10-17T07:56:13.789Z,75.70
2018-10-17T07:58:17.380Z,75.70
2018-10-17T08:00:20.996Z,75.30
2018-10-17T08:02:24.466Z,74.80
2018-10-17T08:04:27.988Z,74.40
2018-10-17T08:06:31.579Z,73.90
2018-10-17T08:08:35.135Z,74.70
2018-10-17T08:10:38.660Z,73.90
2018-10-17T08:12:42.160Z,74.00
2018-10-17T08:14:45.739Z,74.00
2018-10-17T08:16:49.478Z,74.30
2018-10-17T08:18:53.037Z,74.20
2018-10-17T08:20:56.555Z,74.10
2018-10-17T08:23:00.094Z,73.70
2018-10-17T08:25:03.732Z,73.90
2018-10-17T08:27:07.493Z,74.00
2018-10-17T08:29:11.039Z,74.00
2018-10-17T08:31:15.199Z,73.80
2018-10-17T08:33:19.030Z,73.80
2018-10-17T08:35:22.920Z,74.30
2018-10-17T08:37:27.392Z,74.00
2018-10-17T08:39:30.744Z,73.90
2018-10-17T08:41:34.396Z,74.00
2018-10-17T08:43:37.957Z,74.20
2018-10-17T08:45:41.476Z,73.70
2018-10-17T08:47:45.046Z,73.60
2018-10-17T08:49:48.578Z,73.60
2018-10-17T08:51:52.252Z,73.90
2018-10-17T08:53:55.777Z,73.90
2018-10-17T08:55:59.459Z,74.10
2018-10-17T08:58:03.985Z,73.90
2018-10-17T09:00:08.031Z,73.80
2018-10-17T09:02:11.601Z,73.50
2018-10-17T09:04:15.259Z,73.40
2018-10-17T09:06:19.218Z,73.30
2018-10-17T09:08:22.664Z,73.30
2018-10-17T09:10:26.121Z,73.40
2018-10-17T09:12:29.662Z,73.20
2018-10-17T09:14:39.989Z,73.30
2018-10-17T09:16:43.790Z,74.20
2018-10-17T09:18:47.313Z,74.30
2018-10-17T09:20:51.371Z,73.70
2018-10-17T09:22:54.568Z,74.00
2018-10-17T09:24:58.573Z,74.20
2018-10-17T09:27:02.121Z,73.30
2018-10-17T09:29:05.660Z,73.30
2018-10-17T09:31:09.241Z,73.80
2018-10-17T09:33:12.919Z,73.20
2018-10-17T09:35:16.520Z,73.00
2018-10-17T09:37:20.119Z,74.00
2018-10-17T09:39:23.694Z,73.60
2018-10-17T09:41:27.431Z,73.20
2018-10-17T09:43:30.983Z,72.50
2018-10-17T09:45:34.700Z,72.20
2018-10-17T09:47:38.422Z,72.50
2018-10-17T09:49:42.033Z,72.30
2018-10-17T09:51:45.554Z,72.60
2018-10-17T09:53:49.341Z,72.20
2018-10-17T09:55:52.903Z,72.40
2018-10-17T09:57:56.498Z,71.60
2018-10-17T10:00:00.120Z,71.20
2018-10-17T10:02:03.737Z,71.20
2018-10-17T10:04:07.963Z,70.90
2018-10-17T10:06:11.786Z,71.50
2018-10-17T10:08:15.309Z,71.30
2018-10-17T10:10:18.931Z,70.80
2018-10-17T10:12:22.484Z,70.90
2018-10-17T10:14:26.196Z,71.50
2018-10-17T10:16:29.912Z,70.90
2018-10-17T10:18:33.586Z,70.90
2018-10-17T10:20:37.158Z,71.30
2018-10-17T10:22:40.759Z,71.20
2018-10-17T10:24:44.323Z,71.40
2018-10-17T10:26:48.027Z,70.80
2018-10-17T10:28:51.801Z,70.70
2018-10-17T10:30:55.320Z,70.50
2018-10-17T10:32:59.245Z,70.50
2018-10-17T10:35:02.932Z,69.90
2018-10-17T10:37:06.585Z,70.30
2018-10-17T10:39:11.251Z,69.60
2018-10-17T10:41:14.913Z,69.40
2018-10-17T10:43:18.500Z,70.70
2018-10-17T10:45:22.299Z,70.90
2018-10-17T10:47:25.860Z,70.60
2018-10-17T10:49:29.488Z,70.20
2018-10-17T10:51:33.404Z,70.10
2018-10-17T10:53:36.861Z,68.90
2018-10-17T10:55:40.428Z,69.30
2018-10-17T10:57:44.003Z,69.90
2018-10-17T10:59:47.561Z,69.70
2018-10-17T11:01:51.121Z,70.10
2018-10-17T11:03:54.580Z,70.10
2018-10-17T11:05:58.148Z,69.80
2018-10-17T11:08:01.893Z,69.70
2018-10-17T11:10:05.892Z,69.70
2018-10-17T11:12:09.416Z,69.50
2018-10-17T11:14:13.288Z,69.90
2018-10-17T11:16:16.551Z,69.20
2018-10-17T11:18:20.124Z,69.10
2018-10-17T11:20:23.644Z,70.10
2018-10-17T11:22:27.151Z,69.60
2018-10-17T11:24:31.056Z,68.90
2018-10-17T11:26:34.628Z,68.30
2018-10-17T11:28:38.172Z,69.30
2018-10-17T11:30:41.691Z,69.40
2018-10-17T11:32:45.219Z,68.50
2018-10-17T11:34:48.884Z,67.70
2018-10-17T11:36:52.446Z,68.30
2018-10-17T11:38:56.142Z,67.90
2018-10-17T11:41:02.584Z,67.90
2018-10-17T11:43:06.229Z,67.10
2018-10-17T11:45:09.848Z,67.30
2018-10-17T11:47:13.596Z,66.40
2018-10-17T11:49:17.167Z,66.10
2018-10-17T11:51:20.751Z,66.40
2018-10-17T11:53:24.447Z,66.80
2018-10-17T11:55:27.988Z,66.80
2018-10-17T11:57:31.551Z,66.50
2018-10-17T11:59:35.126Z,65.90
2018-10-17T12:01:38.659Z,65.90
2018-10-17T12:03:42.422Z,66.50
2018-10-17T12:05:46.012Z,66.00
2018-10-17T12:07:49.528Z,66.00
2018-10-17T12:09:53.054Z,66.90
2018-10-17T12:11:56.782Z,67.10
2018-10-17T12:14:00.430Z,66.40
2018-10-17T12:16:04.072Z,65.90
2018-10-17T12:18:07.706Z,65.80
2018-10-17T12:20:13.167Z,64.30
2018-10-17T12:22:16.861Z,63.60
2018-10-17T12:24:20.474Z,63.90
2018-10-17T12:26:24.080Z,63.60
2018-10-17T12:28:27.746Z,63.00
2018-10-17T12:30:31.430Z,63.60
2018-10-17T12:32:34.967Z,62.80
2018-10-17T12:34:38.836Z,63.10
2018-10-17T12:36:42.515Z,63.70
2018-10-17T12:38:46.122Z,64.70
2018-10-17T12:40:50.052Z,63.50
2018-10-17T12:42:53.423Z,62.80
2018-10-17T12:44:57.017Z,62.50
2018-10-17T12:47:00.595Z,61.90
2018-10-17T12:49:04.295Z,62.30
2018-10-17T12:51:07.855Z,61.90
2018-10-17T12:53:11.472Z,61.70
2018-10-17T12:55:15.174Z,62.00
2018-10-17T12:57:18.683Z,61.50
2018-10-17T12:59:22.247Z,61.50
2018-10-17T13:01:25.829Z,61.10
2018-10-17T13:03:29.442Z,62.40
2018-10-17T13:05:33.079Z,62.20
2018-10-17T13:07:36.660Z,63.10
2018-10-17T13:09:40.244Z,62.70
2018-10-17T13:11:43.997Z,62.30
2018-10-17T13:13:47.500Z,62.30
2018-10-17T13:15:51.063Z,61.90
2018-10-17T13:17:54.609Z,61.80
2018-10-17T13:19:58.261Z,62.30
2018-10-17T13:22:01.790Z,61.60
2018-10-17T13:24:05.999Z,61.30
2018-10-17T13:26:09.657Z,61.80
2018-10-17T13:28:13.176Z,61.40
2018-10-17T13:30:16.704Z,61.60
2018-10-17T13:32:20.560Z,61.90
2018-10-17T13:34:24.229Z,62.40
2018-10-17T13:36:27.717Z,61.00
2018-10-17T13:38:31.300Z,61.60
2018-10-17T13:40:34.980Z,61.20
2018-10-17T13:42:38.593Z,60.60
2018-10-17T13:44:42.354Z,60.80
2018-10-17T13:46:45.926Z,61.20
2018-10-17T13:48:49.641Z,61.40
2018-10-17T13:50:53.141Z,60.60
2018-10-17T13:52:56.916Z,60.70
2018-10-17T13:55:00.418Z,61.60
2018-10-17T13:57:03.996Z,62.40
2018-10-17T13:59:07.705Z,61.70
2018-10-17T14:01:11.445Z,61.40
2018-10-17T14:03:14.939Z,61.70
2018-10-17T14:05:18.563Z,62.10
2018-10-17T14:07:22.112Z,62.40
2018-10-17T14:09:25.750Z,61.50
2018-10-17T14:11:29.563Z,61.50
2018-10-17T14:13:33.337Z,61.30
2018-10-17T14:15:36.877Z,61.10
2018-10-17T14:17:40.484Z,61.00
2018-10-17T14:19:44.140Z,61.50
2018-10-17T14:21:47.756Z,61.30
2018-10-17T14:23:51.374Z,61.50
2018-10-17T14:25:55.069Z,61.40
2018-10-17T14:27:58.667Z,61.20
2018-10-17T14:30:02.415Z,61.80
2018-10-17T14:32:06.747Z,61.50
2018-10-17T14:34:10.386Z,60.60
2018-10-17T14:36:13.995Z,60.40
2018-10-17T14:38:17.579Z,60.90
2018-10-17T14:40:21.225Z,60.50
2018-10-17T14:42:24.816Z,61.00
2018-10-17T14:44:28.370Z,61.30
2018-10-17T14:46:31.976Z,61.00
2018-10-17T14:48:35.694Z,61.10
2018-10-17T14:50:39.351Z,61.10
2018-10-17T14:52:42.907Z,61.40
2018-10-17T14:54:46.476Z,61.30
2018-10-17T14:56:50.073Z,60.40
2018-10-17T14:58:53.825Z,60.80
2018-10-17T15:00:57.591Z,60.50
2018-10-17T15:03:01.181Z,60.10
2018-10-17T15:05:05.162Z,60.40
2018-10-17T15:07:08.733Z,60.90
2018-10-17T15:09:12.272Z,60.80
2018-10-17T15:11:15.973Z,61.10
2018-10-17T15:13:19.465Z,61.40
2018-10-17T15:15:23.027Z,60.60
2018-10-17T15:17:26.767Z,60.20
2018-10-17T15:19:30.402Z,60.80
2018-10-17T15:21:34.056Z,61.10
2018-10-17T15:23:37.632Z,61.10
2018-10-17T15:25:41.280Z,60.90
2018-10-17T15:27:44.903Z,61.40
2018-10-17T15:29:48.937Z,62.00
2018-10-17T15:31:52.596Z,62.30
2018-10-17T15:33:56.194Z,60.90
2018-10-17T15:36:00.018Z,61.60
2018-10-17T15:38:03.570Z,62.00
2018-10-17T15:40:07.173Z,61.30
2018-10-17T15:42:10.798Z,61.90
2018-10-17T15:44:14.565Z,62.00
2018-10-17T15:46:18.142Z,62.20
2018-10-17T15:48:21.722Z,62.00
2018-10-17T15:50:25.414Z,61.80
2018-10-17T15:52:28.937Z,62.60
2018-10-17T15:54:32.710Z,63.00
2018-10-17T15:56:36.548Z,63.70
2018-10-17T15:58:40.148Z,64.00
2018-10-17T16:00:43.715Z,63.70
2018-10-17T16:02:47.296Z,63.90
2018-10-17T16:04:51.012Z,64.20
2018-10-17T16:06:54.827Z,64.60
2018-10-17T16:08:58.439Z,65.10
2018-10-17T16:11:02.057Z,64.80
2018-10-17T16:13:05.692Z,64.50
2018-10-17T16:15:09.809Z,64.60
2018-10-17T16:17:13.431Z,65.10
2018-10-17T16:19:16.954Z,65.60
2018-10-17T16:21:20.542Z,65.50
2018-10-17T16:23:24.278Z,65.40
2018-10-17T16:25:27.892Z,65.80
2018-10-17T16:27:31.553Z,66.00
2018-10-17T16:29:35.189Z,66.30
2018-10-17T16:31:38.884Z,66.80
2018-10-17T16:33:42.402Z,67.60
2018-10-17T16:35:45.935Z,67.20
2018-10-17T16:37:49.676Z,67.40
2018-10-17T16:39:53.292Z,67.50
2018-10-17T16:41:56.932Z,68.00
2018-10-17T16:44:00.669Z,68.10
2018-10-17T16:46:04.223Z,68.50
2018-10-17T16:48:07.865Z,68.70
2018-10-17T16:50:11.655Z,68.50
2018-10-17T16:52:15.039Z,68.80
2018-10-17T16:54:18.781Z,68.90
2018-10-17T16:56:22.454Z,69.00
2018-10-17T16:58:26.215Z,69.40
2018-10-17T17:00:29.855Z,69.20
2018-10-17T17:02:33.520Z,69.20
2018-10-17T17:04:37.223Z,69.20
2018-10-17T17:06:40.745Z,69.00
2018-10-17T17:08:44.357Z,69.00
2018-10-17T17:10:47.899Z,69.20
2018-10-17T17:12:51.568Z,69.50
2018-10-17T17:14:55.281Z,69.80
2018-10-17T17:16:58.891Z,69.70
2018-10-17T17:19:02.497Z,69.90
2018-10-17T17:21:06.229Z,70.30
2018-10-17T17:23:09.784Z,70.10
2018-10-17T17:25:13.363Z,70.40
2018-10-17T17:27:18.260Z,70.30
2018-10-17T17:29:21.964Z,70.80
2018-10-17T17:31:25.568Z,70.50
2018-10-17T17:33:29.144Z,70.50
2018-10-17T17:35:32.794Z,70.20
2018-10-17T17:37:36.464Z,70.20
2018-10-17T17:39:40.054Z,70.30
2018-10-17T17:41:43.627Z,70.30
2018-10-17T17:43:47.205Z,70.60
2018-10-17T17:45:50.973Z,70.80
2018-10-17T17:47:54.587Z,70.70
2018-10-17T17:49:58.135Z,71.00
2018-10-17T17:52:01.714Z,71.10
2018-10-17T17:54:05.430Z,71.20
2018-10-17T17:56:09.052Z,71.20
2018-10-17T17:58:12.696Z,71.20
2018-10-17T18:00:16.604Z,71.10
2018-10-17T18:02:26.742Z,71.40
2018-10-17T18:04:30.653Z,71.40
2018-10-17T18:06:34.140Z,71.20
2018-10-17T18:08:37.740Z,71.40
2018-10-17T18:10:47.864Z,71.70
2018-10-17T18:12:51.537Z,71.30
2018-10-17T18:14:55.170Z,71.20
2018-10-17T18:16:58.747Z,71.10
2018-10-17T18:19:02.307Z,71.00
2018-10-17T18:21:06.168Z,71.30
2018-10-17T18:23:09.799Z,71.10
2018-10-17T18:25:13.488Z,71.10
2018-10-17T18:27:17.166Z,71.30
2018-10-17T18:29:20.804Z,71.20
2018-10-17T18:31:24.814Z,71.10
2018-10-17T18:33:28.395Z,71.10
2018-10-17T18:35:31.999Z,71.10
2018-10-17T18:37:35.653Z,70.90
2018-10-17T18:39:39.406Z,71.00
2018-10-17T18:41:42.984Z,70.90
2018-10-17T18:43:46.588Z,71.10
2018-10-17T18:45:50.192Z,71.10
2018-10-17T18:47:54.189Z,71.30
2018-10-17T18:49:57.613Z,71.10
2018-10-17T18:52:01.199Z,70.80
2018-10-17T18:54:05.151Z,71.20
2018-10-17T18:56:08.913Z,71.00
2018-10-17T18:58:13.044Z,71.10
2018-10-17T19:00:16.700Z,71.10
2018-10-17T19:02:20.312Z,71.10
2018-10-17T19:04:24.108Z,71.00
2018-10-17T19:06:27.675Z,71.20
2018-10-17T19:08:31.255Z,71.10
2018-10-17T19:10:34.849Z,71.10
2018-10-17T19:12:38.640Z,71.00
2018-10-17T19:14:42.246Z,71.10
2018-10-17T19:16:45.814Z,71.20
2018-10-17T19:18:50.442Z,71.30
2018-10-17T19:20:54.051Z,71.30
2018-10-17T19:22:57.804Z,71.50
2018-10-17T19:25:01.475Z,71.40
2018-10-17T19:27:05.506Z,71.30
2018-10-17T19:29:09.106Z,71.40
2018-10-17T19:31:12.823Z,71.20
2018-10-17T19:33:16.404Z,71.40
2018-10-17T19:35:20.045Z,71.30
2018-10-17T19:37:23.736Z,71.40
2018-10-17T19:39:27.325Z,71.20
2018-10-17T19:41:30.903Z,71.10
2018-10-17T19:43:34.657Z,71.00
2018-10-17T19:45:38.238Z,71.40
2018-10-17T19:47:41.792Z,71.20
2018-10-17T19:49:45.463Z,71.40
2018-10-17T19:51:49.040Z,71.90
2018-10-17T19:53:52.665Z,71.80
2018-10-17T19:55:56.304Z,71.70
2018-10-17T19:57:59.872Z,71.40
2018-10-17T20:00:03.565Z,71.60
2018-10-17T20:02:07.508Z,71.90
2018-10-17T20:04:11.149Z,72.60
2018-10-17T20:06:14.756Z,73.30
2018-10-17T20:08:18.582Z,74.00
2018-10-17T20:10:22.124Z,74.00
2018-10-17T20:12:25.677Z,75.20
2018-10-17T20:14:29.224Z,75.00
2018-10-17T20:16:32.890Z,75.60
2018-10-17T20:18:36.668Z,75.50
2018-10-17T20:20:40.365Z,75.20
2018-10-17T20:22:44.086Z,74.40
2018-10-17T20:24:47.799Z,74.10
2018-10-17T20:26:51.507Z,73.90
2018-10-17T20:28:55.206Z,73.90
2018-10-17T20:30:58.856Z,73.80
2018-10-17T20:33:02.522Z,74.50
2018-10-17T20:35:06.928Z,77.40
2018-10-17T20:37:10.476Z,77.40
2018-10-17T20:39:14.941Z,76.20
2018-10-17T20:41:18.589Z,77.20
2018-10-17T20:43:22.173Z,77.20
2018-10-17T20:45:25.776Z,77.50
2018-10-17T20:47:29.507Z,78.10
2018-10-17T20:49:33.188Z,77.60
2018-10-17T20:51:36.799Z,76.60
2018-10-17T20:53:40.608Z,76.30
2018-10-17T20:55:44.402Z,77.40
2018-10-17T20:57:47.945Z,77.50
2018-10-17T20:59:51.525Z,79.00
2018-10-17T21:01:55.248Z,78.80
2018-10-17T21:03:58.807Z,78.10
2018-10-17T21:06:02.502Z,78.50
2018-10-17T21:08:06.198Z,77.80
2018-10-17T21:10:09.726Z,78.10
2018-10-17T21:12:13.295Z,78.10
2018-10-17T21:14:17.101Z,78.70
2018-10-17T21:16:20.662Z,78.10
2018-10-17T21:18:24.399Z,79.10
2018-10-17T21:20:27.892Z,78.70
2018-10-17T21:22:31.628Z,79.20
2018-10-17T21:24:35.353Z,79.70
2018-10-17T21:26:38.886Z,79.50
2018-10-17T21:28:42.467Z,79.40
2018-10-17T21:30:46.106Z,80.70
2018-10-17T21:32:49.641Z,80.40
2018-10-17T21:34:53.251Z,79.30
2018-10-17T21:36:57.225Z,78.10
2018-10-17T21:39:00.800Z,77.90
2018-10-17T21:41:04.460Z,78.90
2018-10-17T21:43:08.274Z,78.60
2018-10-17T21:45:12.497Z,77.60
2018-10-17T21:47:16.312Z,77.00
2018-10-17T21:49:19.860Z,76.50
2018-10-17T21:51:23.508Z,76.80
2018-10-17T21:53:27.146Z,77.00
2018-10-17T21:55:30.886Z,77.40
2018-10-17T21:57:34.453Z,77.40
2018-10-17T21:59:38.113Z,77.70
2018-10-17T22:01:41.653Z,77.40
2018-10-17T22:03:45.295Z,77.20
2018-10-17T22:05:48.887Z,78.10
2018-10-17T22:07:52.751Z,80.20
2018-10-17T22:09:56.421Z,81.60
2018-10-17T22:11:59.987Z,80.80
2018-10-17T22:14:03.872Z,80.20
2018-10-17T22:16:07.674Z,79.80
2018-10-17T22:18:11.320Z,80.10
2018-10-17T22:20:14.980Z,82.20
2018-10-17T22:22:18.633Z,84.50
2018-10-17T22:24:22.280Z,86.50
2018-10-17T22:26:26.013Z,87.10
2018-10-17T22:28:29.579Z,86.10
2018-10-17T22:30:33.163Z,84.90
2018-10-17T22:32:36.731Z,84.30
2018-10-17T22:34:40.272Z,84.50
2018-10-17T22:36:43.847Z,84.00
2018-10-17T22:38:47.515Z,82.10
2018-10-17T22:40:51.147Z,80.70
2018-10-17T22:42:54.743Z,81.00
2018-10-17T22:44:58.302Z,82.10
2018-10-17T22:47:01.880Z,82.80
2018-10-17T22:49:06.144Z,81.70
2018-10-17T22:51:09.740Z,82.50
2018-10-17T22:53:13.374Z,82.10
2018-10-17T22:55:17.042Z,82.10
2018-10-17T22:57:20.545Z,83.50
2018-10-17T22:59:24.117Z,84.90
2018-10-17T23:01:27.722Z,86.30
2018-10-17T23:03:31.292Z,86.60
2018-10-17T23:05:34.964Z,87.90
2018-10-17T23:07:38.555Z,89.40
2018-10-17T23:09:42.081Z,88.70
2018-10-17T23:11:45.623Z,87.30
2018-10-17T23:13:49.209Z,85.90
2018-10-17T23:15:52.743Z,83.60
2018-10-17T23:17:56.287Z,83.60
2018-10-17T23:19:59.895Z,82.30
2018-10-17T23:22:03.565Z,81.10
2018-10-17T23:24:07.301Z,80.00
2018-10-17T23:26:10.997Z,78.80
2018-10-17T23:28:14.599Z,78.10
2018-10-17T23:30:18.153Z,77.60
2018-10-17T23:32:21.806Z,77.30
2018-10-17T23:34:25.419Z,77.20
2018-10-17T23:36:29.149Z,77.00
2018-10-17T23:38:32.693Z,76.80
2018-10-17T23:40:36.218Z,76.60
2018-10-17T23:42:39.851Z,76.40
2018-10-17T23:44:43.480Z,76.10
2018-10-17T23:46:47.117Z,76.10
2018-10-17T23:48:50.747Z,75.60
2018-10-17T23:50:54.284Z,75.60
2018-10-17T23:52:57.835Z,75.40
2018-10-17T23:55:01.477Z,75.30
2018-10-17T23:57:05.293Z,75.80
2018-10-17T23:59:08.965Z,75.70
